No particular awareness of the weather is required.    There are no Weather-warnings


Meteo18 Weather Cam more information Meteo18 Weather Cam


Thunder radar more information blitzortung!


Rain radar more information rain snow radar


Visit our other weather sites:

Template documentation
and downloads

And another site



Weather Underground History page Text

Daily Summary for October 15, 2016 Units:  Metric    English   Both
« Previous Day
Next Day »
Daily Weekly Monthly Yearly Custom
  High: Low: Average:
Temperature: 18.2 °C 5.9 °C 11.8 °C
Dew Point: 10.7 °C 5.4 °C 8.7 °C
Humidity: 97 % 55 % 83 %
Wind Speed: 22.5 km/h 0.0 km/h 4.2 km/h
Wind Gust: 25.7 km/h - -
Wind:- - SSW
Pressure: 1016.1 hPa 1005.3 hPa -
Precipitation: 0.3 mm    
Historical Graphs
 
 
Tabular Data for October 15, 2016
Time Temperature Dew Point Pressure Wind Wind Speed Wind Gust Humidity Rainfall Rate (Hourly)
00:02 10.8 °C 10.0 °C 1005.3 hPa SW 6.4 km/h 22.5 km/h 95 % 0.3 mm
00:07 10.7 °C 9.9 °C 1005.3 hPa WSW 9.7 km/h 22.5 km/h 95 % 0.5 mm
00:12 10.7 °C 9.9 °C 1005.6 hPa WSW 12.9 km/h 22.5 km/h 95 % 0.5 mm
00:17 10.7 °C 9.9 °C 1005.6 hPa WSW 4.8 km/h 22.5 km/h 95 % 0.5 mm
00:22 10.7 °C 9.9 °C 1005.6 hPa WSW 4.8 km/h 19.3 km/h 95 % 0.5 mm
00:42 10.6 °C 10.0 °C 1006.0 hPa WSW 22.5 km/h 22.5 km/h 96 % 0.5 mm
00:52 10.6 °C 10.0 °C 1006.0 hPa SW 4.8 km/h 25.7 km/h 96 % 0.3 mm
00:57 10.5 °C 9.9 °C 1006.0 hPa WSW 16.1 km/h 25.7 km/h 96 % 0.3 mm
01:02 10.4 °C 9.8 °C 1006.0 hPa SW 11.3 km/h 24.1 km/h 96 % 0.3 mm
01:07 10.4 °C 9.8 °C 1006.0 hPa WSW 12.9 km/h 24.1 km/h 96 % 0.0 mm
01:12 10.4 °C 9.6 °C 1006.3 hPa WSW 9.7 km/h 24.1 km/h 95 % 0.0 mm
01:17 10.4 °C 9.6 °C 1006.3 hPa SW 9.7 km/h 25.7 km/h 95 % 0.0 mm
01:22 10.3 °C 9.5 °C 1006.3 hPa WSW 11.3 km/h 25.7 km/h 95 % 0.0 mm
01:27 10.4 °C 9.5 °C 1006.3 hPa West 8.0 km/h 25.7 km/h 94 % 0.0 mm
01:32 10.4 °C 9.5 °C 1006.3 hPa SW 11.3 km/h 25.7 km/h 94 % 0.0 mm
01:42 10.3 °C 9.4 °C 1006.7 hPa West 6.4 km/h 24.1 km/h 94 % 0.0 mm
01:47 10.3 °C 9.4 °C 1006.7 hPa SW 6.4 km/h 24.1 km/h 94 % 0.0 mm
01:52 10.3 °C 9.4 °C 1006.7 hPa WSW 11.3 km/h 24.1 km/h 94 % 0.0 mm
01:57 10.2 °C 9.3 °C 1006.7 hPa WSW 9.7 km/h 24.1 km/h 94 % 0.0 mm
02:02 10.2 °C 9.4 °C 1007.0 hPa WSW 8.0 km/h 24.1 km/h 95 % 0.0 mm
02:07 10.2 °C 9.4 °C 1007.0 hPa West 8.0 km/h 22.5 km/h 95 % 0.0 mm
02:12 10.1 °C 9.3 °C 1007.3 hPa WSW 17.7 km/h 20.9 km/h 95 % 0.0 mm
02:17 10.0 °C 9.1 °C 1007.0 hPa SW 9.7 km/h 25.7 km/h 94 % 0.0 mm
02:22 9.9 °C 9.0 °C 1007.3 hPa WSW 9.7 km/h 25.7 km/h 94 % 0.0 mm
02:27 9.9 °C 9.0 °C 1007.3 hPa SW 14.5 km/h 25.7 km/h 94 % 0.0 mm
02:32 9.9 °C 9.0 °C 1007.3 hPa SW 9.7 km/h 22.5 km/h 94 % 0.0 mm
02:37 9.8 °C 8.9 °C 1007.3 hPa SW 8.0 km/h 22.5 km/h 94 % 0.0 mm
02:42 9.8 °C 8.9 °C 1007.7 hPa SW 11.3 km/h 22.5 km/h 94 % 0.0 mm
02:47 9.8 °C 8.9 °C 1007.7 hPa WSW 1.6 km/h 22.5 km/h 94 % 0.0 mm
02:52 9.7 °C 8.8 °C 1007.7 hPa WSW 12.9 km/h 20.9 km/h 94 % 0.0 mm
02:57 9.7 °C 8.8 °C 1008.0 hPa West 6.4 km/h 17.7 km/h 94 % 0.0 mm
03:02 9.7 °C 8.8 °C 1008.0 hPa SSW 3.2 km/h 19.3 km/h 94 % 0.0 mm
03:07 9.6 °C 8.7 °C 1008.0 hPa WSW 4.8 km/h 19.3 km/h 94 % 0.0 mm
03:12 9.6 °C 8.5 °C 1008.0 hPa SW 8.0 km/h 19.3 km/h 93 % 0.0 mm
03:17 9.6 °C 8.5 °C 1008.0 hPa SW 6.4 km/h 19.3 km/h 93 % 0.0 mm
03:22 9.5 °C 8.4 °C 1008.4 hPa SW 6.4 km/h 17.7 km/h 93 % 0.0 mm
03:32 9.3 °C 8.4 °C 1008.4 hPa SW 8.0 km/h 17.7 km/h 94 % 0.0 mm
03:37 9.3 °C 8.4 °C 1008.4 hPa WSW 9.7 km/h 17.7 km/h 94 % 0.0 mm
03:42 9.2 °C 8.3 °C 1008.4 hPa SW 3.2 km/h 17.7 km/h 94 % 0.0 mm
03:47 9.2 °C 8.3 °C 1008.4 hPa SW 3.2 km/h 12.9 km/h 94 % 0.0 mm
03:52 9.1 °C 8.2 °C 1008.4 hPa SW 1.6 km/h 12.9 km/h 94 % 0.0 mm
03:57 9.1 °C 8.3 °C 1008.4 hPa WSW 6.4 km/h 11.3 km/h 95 % 0.0 mm
04:02 9.0 °C 8.2 °C 1008.7 hPa SW 9.7 km/h 11.3 km/h 95 % 0.0 mm
04:07 8.9 °C 8.1 °C 1008.7 hPa SW 6.4 km/h 11.3 km/h 95 % 0.0 mm
04:12 8.9 °C 8.1 °C 1008.7 hPa SW 3.2 km/h 11.3 km/h 95 % 0.0 mm
04:17 8.9 °C 8.1 °C 1009.0 hPa South 3.2 km/h 11.3 km/h 95 % 0.0 mm
04:22 8.7 °C 7.9 °C 1009.0 hPa SSW 3.2 km/h 9.7 km/h 95 % 0.0 mm
04:32 8.7 °C 8.1 °C 1009.0 hPa SSW 3.2 km/h 8.0 km/h 96 % 0.0 mm
04:37 8.7 °C 8.1 °C 1009.0 hPa SSW 6.4 km/h 8.0 km/h 96 % 0.0 mm
04:42 8.7 °C 8.1 °C 1009.4 hPa SSW 4.8 km/h 8.0 km/h 96 % 0.0 mm
04:47 8.7 °C 8.1 °C 1009.4 hPa South 6.4 km/h 8.0 km/h 96 % 0.0 mm
04:52 8.6 °C 8.0 °C 1009.4 hPa SSW 3.2 km/h 8.0 km/h 96 % 0.0 mm
04:57 8.6 °C 8.0 °C 1009.4 hPa SW 3.2 km/h 8.0 km/h 96 % 0.0 mm
05:02 8.5 °C 7.9 °C 1009.4 hPa SE 1.6 km/h 8.0 km/h 96 % 0.0 mm
05:12 8.4 °C 7.8 °C 1009.4 hPa South 3.2 km/h 8.0 km/h 96 % 0.0 mm
05:17 8.3 °C 7.7 °C 1009.4 hPa SW 1.6 km/h 4.8 km/h 96 % 0.0 mm
05:22 8.3 °C 7.7 °C 1009.4 hPa Calm   4.8 km/h 96 % 0.0 mm
05:32 8.2 °C 7.6 °C 1009.4 hPa Calm   4.8 km/h 96 % 0.0 mm
05:42 8.2 °C 7.6 °C 1009.4 hPa Calm   1.6 km/h 96 % 0.0 mm
05:47 8.2 °C 7.8 °C 1009.4 hPa Calm     97 % 0.0 mm
05:52 8.2 °C 7.8 °C 1009.4 hPa SSW 3.2 km/h   97 % 0.0 mm
05:57 8.2 °C 7.8 °C 1009.4 hPa Calm   3.2 km/h 97 % 0.0 mm
06:02 8.2 °C 7.8 °C 1009.4 hPa Calm   3.2 km/h 97 % 0.0 mm
06:12 8.1 °C 7.5 °C 1009.7 hPa Calm   3.2 km/h 96 % 0.0 mm
06:17 8.0 °C 7.4 °C 1009.7 hPa Calm   3.2 km/h 96 % 0.0 mm
06:22 7.9 °C 7.3 °C 1009.7 hPa Calm   3.2 km/h 96 % 0.0 mm
06:37 7.5 °C 6.9 °C 1010.0 hPa Calm     96 % 0.0 mm
06:42 7.3 °C 6.7 °C 1010.0 hPa Calm     96 % 0.0 mm
06:47 7.2 °C 6.6 °C 1010.0 hPa Calm     96 % 0.0 mm
06:52 7.2 °C 6.8 °C 1010.0 hPa Calm     97 % 0.0 mm
07:02 7.2 °C 6.8 °C 1010.0 hPa Calm     97 % 0.0 mm
07:12 6.9 °C 6.5 °C 1010.4 hPa Calm     97 % 0.0 mm
07:17 6.8 °C 6.4 °C 1010.4 hPa Calm     97 % 0.0 mm
07:22 6.7 °C 6.3 °C 1010.4 hPa Calm     97 % 0.0 mm
07:32 6.4 °C 5.8 °C 1010.4 hPa Calm     96 % 0.0 mm
07:42 6.2 °C 5.6 °C 1010.4 hPa Calm   1.6 km/h 96 % 0.0 mm
07:47 6.0 °C 5.4 °C 1010.7 hPa Calm     96 % 0.0 mm
07:52 5.9 °C 5.5 °C 1010.7 hPa Calm     97 % 0.0 mm
07:57 5.9 °C 5.5 °C 1010.7 hPa Calm     97 % 0.0 mm
08:02 5.9 °C 5.5 °C 1010.7 hPa Calm     97 % 0.0 mm
08:12 6.0 °C 5.6 °C 1011.1 hPa Calm     97 % 0.0 mm
08:17 6.2 °C 5.8 °C 1010.7 hPa Calm     97 % 0.0 mm
08:27 6.2 °C 5.8 °C 1011.1 hPa Calm     97 % 0.0 mm
08:32 6.2 °C 5.8 °C 1011.1 hPa Calm     97 % 0.0 mm
08:42 6.2 °C 5.8 °C 1011.1 hPa Calm     97 % 0.0 mm
08:47 6.2 °C 5.8 °C 1011.4 hPa Calm     97 % 0.0 mm
08:52 6.3 °C 5.9 °C 1011.4 hPa Calm     97 % 0.0 mm
08:57 6.4 °C 6.0 °C 1011.4 hPa Calm   1.6 km/h 97 % 0.0 mm
09:02 6.6 °C 6.2 °C 1011.4 hPa Calm   1.6 km/h 97 % 0.0 mm
09:12 6.9 °C 6.5 °C 1011.4 hPa Calm   1.6 km/h 97 % 0.0 mm
09:17 7.2 °C 6.8 °C 1011.4 hPa Calm     97 % 0.0 mm
09:22 7.4 °C 7.0 °C 1011.4 hPa Calm     97 % 0.0 mm
09:32 8.0 °C 7.6 °C 1011.4 hPa Calm     97 % 0.0 mm
09:42 8.4 °C 8.0 °C 1011.7 hPa SE 1.6 km/h   97 % 0.0 mm
09:52 8.8 °C 8.3 °C 1011.7 hPa SSE 1.6 km/h 1.6 km/h 97 % 0.0 mm
10:02 8.8 °C 8.2 °C 1012.1 hPa SSE 3.2 km/h 3.2 km/h 96 % 0.0 mm
10:12 9.0 °C 8.4 °C 1012.1 hPa SSW 1.6 km/h 6.4 km/h 96 % 0.0 mm
10:17 9.1 °C 8.3 °C 1012.1 hPa SSE 6.4 km/h 6.4 km/h 95 % 0.0 mm
10:22 9.3 °C 8.5 °C 1012.1 hPa SSE 3.2 km/h 8.0 km/h 95 % 0.0 mm
10:32 9.6 °C 8.5 °C 1012.1 hPa SE 1.6 km/h 8.0 km/h 93 % 0.0 mm
10:42 10.2 °C 9.0 °C 1012.1 hPa SSE 1.6 km/h 8.0 km/h 92 % 0.0 mm
10:52 10.7 °C 9.1 °C 1012.1 hPa SSW 3.2 km/h 8.0 km/h 90 % 0.0 mm
10:57 10.9 °C 9.5 °C 1012.4 hPa SSW 4.8 km/h 8.0 km/h 91 % 0.0 mm
11:12 11.7 °C 9.8 °C 1012.8 hPa SW 4.8 km/h 8.0 km/h 88 % 0.0 mm
11:17 11.8 °C 9.7 °C 1012.4 hPa SSW 8.0 km/h 8.0 km/h 87 % 0.0 mm
11:22 12.1 °C 9.8 °C 1012.8 hPa SSW 3.2 km/h 11.3 km/h 86 % 0.0 mm
11:32 12.6 °C 10.3 °C 1012.4 hPa South 3.2 km/h 11.3 km/h 86 % 0.0 mm
11:42 13.0 °C 10.2 °C 1012.4 hPa SSW 3.2 km/h 9.7 km/h 83 % 0.0 mm
11:52 13.3 °C 9.9 °C 1012.4 hPa SW 11.3 km/h 11.3 km/h 80 % 0.0 mm
12:02 13.8 °C 10.0 °C 1012.4 hPa WSW 6.4 km/h 12.9 km/h 78 % 0.0 mm
12:07 14.1 °C 10.3 °C 1012.4 hPa SSE 8.0 km/h 16.1 km/h 78 % 0.0 mm
12:12 14.3 °C 10.1 °C 1012.4 hPa SSW 4.8 km/h 16.1 km/h 76 % 0.0 mm
12:17 14.4 °C 10.2 °C 1012.8 hPa SSE 3.2 km/h 16.1 km/h 76 % 0.0 mm
12:22 14.5 °C 10.1 °C 1012.8 hPa SSW 4.8 km/h 16.1 km/h 75 % 0.0 mm
12:32 14.5 °C 9.7 °C 1012.8 hPa South 4.8 km/h 12.9 km/h 73 % 0.0 mm
12:47 15.0 °C 9.8 °C 1012.8 hPa SW 9.7 km/h 16.1 km/h 71 % 0.0 mm
12:52 15.2 °C 10.0 °C 1012.8 hPa South 14.5 km/h 16.1 km/h 71 % 0.0 mm
12:57 15.1 °C 9.0 °C 1012.8 hPa SSW 9.7 km/h 17.7 km/h 67 % 0.0 mm
13:02 15.2 °C 9.1 °C 1012.8 hPa SSW 6.4 km/h 17.7 km/h 67 % 0.0 mm
13:07 15.3 °C 9.2 °C 1012.8 hPa SSW 9.7 km/h 17.7 km/h 67 % 0.0 mm
13:12 15.4 °C 9.3 °C 1012.8 hPa WSW 6.4 km/h 17.7 km/h 67 % 0.0 mm
13:17 15.6 °C 9.9 °C 1012.8 hPa SW 4.8 km/h 17.7 km/h 69 % 0.0 mm
13:22 15.8 °C 9.2 °C 1012.8 hPa SSW 16.1 km/h 16.1 km/h 65 % 0.0 mm
13:27 15.8 °C 9.7 °C 1012.8 hPa South 3.2 km/h 17.7 km/h 67 % 0.0 mm
13:32 16.0 °C 9.2 °C 1012.8 hPa SSW 17.7 km/h 17.7 km/h 64 % 0.0 mm
13:37 16.1 °C 9.3 °C 1012.8 hPa SSE 6.4 km/h 17.7 km/h 64 % 0.0 mm
13:42 16.2 °C 9.4 °C 1012.8 hPa SSE 3.2 km/h 17.7 km/h 64 % 0.0 mm
13:47 16.3 °C 9.0 °C 1012.8 hPa SSW 14.5 km/h 17.7 km/h 62 % 0.0 mm
13:52 16.3 °C 9.0 °C 1012.8 hPa SW 8.0 km/h 17.7 km/h 62 % 0.0 mm
13:57 16.4 °C 8.6 °C 1012.8 hPa SSW 17.7 km/h 19.3 km/h 60 % 0.0 mm
14:02 16.4 °C 8.9 °C 1012.8 hPa South 4.8 km/h 19.3 km/h 61 % 0.0 mm
14:12 16.7 °C 8.9 °C 1012.8 hPa South 4.8 km/h 19.3 km/h 60 % 0.0 mm
14:17 16.6 °C 8.8 °C 1012.4 hPa SSE 14.5 km/h 17.7 km/h 60 % 0.0 mm
14:22 16.7 °C 8.6 °C 1012.8 hPa SW 8.0 km/h 17.7 km/h 59 % 0.0 mm
14:27 16.7 °C 8.6 °C 1012.8 hPa SW 8.0 km/h 17.7 km/h 59 % 0.0 mm
14:32 16.9 °C 9.6 °C 1012.4 hPa ESE 6.4 km/h 16.1 km/h 62 % 0.0 mm
14:37 17.1 °C 9.8 °C 1012.4 hPa East 8.0 km/h 12.9 km/h 62 % 0.0 mm
14:42 17.0 °C 8.9 °C 1012.4 hPa South 8.0 km/h 12.9 km/h 59 % 0.0 mm
14:47 17.0 °C 9.4 °C 1012.4 hPa SSE 8.0 km/h 14.5 km/h 61 % 0.0 mm
14:52 17.1 °C 9.0 °C 1012.4 hPa ESE 12.9 km/h 14.5 km/h 59 % 0.0 mm
14:57 17.2 °C 9.4 °C 1012.4 hPa SSE 8.0 km/h 16.1 km/h 60 % 0.0 mm
15:02 17.3 °C 9.2 °C 1012.4 hPa SE 6.4 km/h 16.1 km/h 59 % 0.0 mm
15:12 17.3 °C 9.5 °C 1012.8 hPa SW 11.3 km/h 19.3 km/h 60 % 0.0 mm
15:17 17.4 °C 8.8 °C 1012.8 hPa SE 3.2 km/h 19.3 km/h 57 % 0.0 mm
15:22 17.4 °C 8.8 °C 1012.4 hPa South 8.0 km/h 19.3 km/h 57 % 0.0 mm
15:27 17.3 °C 9.0 °C 1012.4 hPa South 12.9 km/h 16.1 km/h 58 % 0.0 mm
15:32 17.4 °C 9.8 °C 1012.4 hPa SSE 4.8 km/h 16.1 km/h 61 % 0.0 mm
15:37 17.6 °C 9.7 °C 1012.4 hPa SE 6.4 km/h 16.1 km/h 60 % 0.0 mm
15:42 17.6 °C 9.2 °C 1012.8 hPa SSW 6.4 km/h 14.5 km/h 58 % 0.0 mm
15:47 17.5 °C 9.4 °C 1012.8 hPa SSE 6.4 km/h 14.5 km/h 59 % 0.0 mm
15:52 17.5 °C 9.4 °C 1012.4 hPa South 6.4 km/h 14.5 km/h 59 % 0.0 mm
15:57 17.5 °C 9.4 °C 1012.8 hPa SSE 3.2 km/h 16.1 km/h 59 % 0.0 mm
16:02 17.5 °C 8.9 °C 1012.8 hPa South 6.4 km/h 16.1 km/h 57 % 0.0 mm
16:07 17.7 °C 9.3 °C 1012.8 hPa SE 4.8 km/h 16.1 km/h 58 % 0.0 mm
16:17 17.7 °C 9.3 °C 1012.8 hPa SSW 3.2 km/h 14.5 km/h 58 % 0.0 mm
16:22 17.8 °C 9.4 °C 1012.8 hPa SE 1.6 km/h 14.5 km/h 58 % 0.0 mm
16:27 17.7 °C 9.6 °C 1012.8 hPa South 6.4 km/h 14.5 km/h 59 % 0.0 mm
16:32 17.6 °C 9.2 °C 1012.8 hPa SE 4.8 km/h 14.5 km/h 58 % 0.0 mm
16:42 17.4 °C 9.1 °C 1012.8 hPa SSW 8.0 km/h 14.5 km/h 58 % 0.0 mm
16:47 17.4 °C 8.8 °C 1012.8 hPa South 4.8 km/h 11.3 km/h 57 % 0.0 mm
16:57 17.7 °C 8.5 °C 1012.8 hPa South 4.8 km/h 16.1 km/h 55 % 0.0 mm
17:02 17.8 °C 8.9 °C 1012.8 hPa SSE 8.0 km/h 16.1 km/h 56 % 0.0 mm
17:07 17.9 °C 9.0 °C 1013.1 hPa SW 4.8 km/h 16.1 km/h 56 % 0.0 mm
17:12 17.8 °C 9.2 °C 1012.8 hPa SSE 3.2 km/h 14.5 km/h 57 % 0.0 mm
17:22 17.9 °C 9.3 °C 1013.1 hPa SSE 3.2 km/h 14.5 km/h 57 % 0.0 mm
17:32 18.0 °C 9.4 °C 1013.1 hPa SSE 1.6 km/h 11.3 km/h 57 % 0.0 mm
17:37 18.2 °C 9.5 °C 1012.8 hPa SSE 6.4 km/h 11.3 km/h 57 % 0.0 mm
17:42 18.1 °C 9.4 °C 1012.8 hPa SE 1.6 km/h 11.3 km/h 57 % 0.0 mm
17:47 18.0 °C 9.6 °C 1013.1 hPa South 4.8 km/h 11.3 km/h 58 % 0.0 mm
17:52 17.8 °C 9.4 °C 1013.1 hPa SW 3.2 km/h 11.3 km/h 58 % 0.0 mm
17:57 17.7 °C 10.1 °C 1013.1 hPa SE 3.2 km/h 12.9 km/h 61 % 0.0 mm
18:02 17.6 °C 10.2 °C 1013.1 hPa ESE 1.6 km/h 12.9 km/h 62 % 0.0 mm
18:12 17.4 °C 10.3 °C 1013.4 hPa SSE 1.6 km/h 8.0 km/h 63 % 0.0 mm
18:17 17.3 °C 10.7 °C 1013.4 hPa ENE 1.6 km/h 8.0 km/h 65 % 0.0 mm
18:27 16.8 °C 10.4 °C 1013.4 hPa SE 4.8 km/h 8.0 km/h 66 % 0.0 mm
18:32 16.3 °C 10.2 °C 1013.4 hPa Calm   8.0 km/h 67 % 0.0 mm
18:42 15.9 °C 10.2 °C 1013.4 hPa SSE 1.6 km/h 9.7 km/h 69 % 0.0 mm
18:52 15.3 °C 9.9 °C 1013.8 hPa Calm   6.4 km/h 70 % 0.0 mm
18:57 14.9 °C 9.9 °C 1013.8 hPa Calm   4.8 km/h 72 % 0.0 mm
19:02 14.6 °C 9.8 °C 1013.8 hPa Calm   4.8 km/h 73 % 0.0 mm
19:07 14.3 °C 9.5 °C 1013.8 hPa Calm   3.2 km/h 73 % 0.0 mm
19:12 14.1 °C 9.5 °C 1013.8 hPa East 1.6 km/h 3.2 km/h 74 % 0.0 mm
19:22 13.7 °C 9.1 °C 1014.1 hPa Calm   3.2 km/h 74 % 0.0 mm
19:27 13.6 °C 9.3 °C 1014.1 hPa Calm   3.2 km/h 75 % 0.0 mm
19:32 13.4 °C 9.3 °C 1014.1 hPa Calm   3.2 km/h 76 % 0.0 mm
19:37 13.2 °C 9.1 °C 1014.1 hPa Calm   1.6 km/h 76 % 0.0 mm
19:52 12.9 °C 9.0 °C 1014.4 hPa Calm     77 % 0.0 mm
19:57 12.7 °C 9.0 °C 1014.4 hPa Calm     78 % 0.0 mm
20:02 12.6 °C 9.1 °C 1014.4 hPa Calm     79 % 0.0 mm
20:12 12.4 °C 8.9 °C 1014.4 hPa Calm     79 % 0.0 mm
20:17 12.5 °C 9.0 °C 1014.8 hPa Calm     79 % 0.0 mm
20:22 12.6 °C 9.1 °C 1014.8 hPa Calm     79 % 0.0 mm
20:32 12.4 °C 8.9 °C 1014.8 hPa Calm   1.6 km/h 79 % 0.0 mm
20:37 12.6 °C 9.1 °C 1014.8 hPa Calm   1.6 km/h 79 % 0.0 mm
20:42 12.5 °C 9.0 °C 1014.8 hPa Calm   1.6 km/h 79 % 0.0 mm
20:47 12.3 °C 8.9 °C 1014.8 hPa Calm   1.6 km/h 80 % 0.0 mm
20:52 12.1 °C 8.8 °C 1014.8 hPa Calm   1.6 km/h 80 % 0.0 mm
20:57 11.9 °C 8.7 °C 1014.8 hPa Calm     81 % 0.0 mm
21:12 11.8 °C 8.8 °C 1015.1 hPa Calm   1.6 km/h 82 % 0.0 mm
21:22 11.1 °C 8.7 °C 1015.1 hPa Calm   1.6 km/h 85 % 0.0 mm
21:27 10.8 °C 8.7 °C 1015.1 hPa Calm   1.6 km/h 87 % 0.0 mm
21:32 10.7 °C 8.6 °C 1015.1 hPa Calm   1.6 km/h 87 % 0.0 mm
21:42 10.3 °C 8.6 °C 1015.5 hPa West 1.6 km/h 3.2 km/h 89 % 0.0 mm
21:47 10.2 °C 8.5 °C 1015.5 hPa WNW 1.6 km/h 3.2 km/h 89 % 0.0 mm
21:52 10.1 °C 8.5 °C 1015.5 hPa Calm   1.6 km/h 90 % 0.0 mm
21:57 10.1 °C 8.7 °C 1015.5 hPa Calm   1.6 km/h 91 % 0.0 mm
22:02 10.1 °C 8.5 °C 1015.5 hPa Calm   1.6 km/h 90 % 0.0 mm
22:07 10.5 °C 8.9 °C 1015.5 hPa Calm   3.2 km/h 90 % 0.0 mm
22:12 10.5 °C 8.6 °C 1015.5 hPa West 1.6 km/h 3.2 km/h 88 % 0.0 mm
22:22 10.3 °C 8.6 °C 1015.8 hPa Calm   1.6 km/h 89 % 0.0 mm
22:27 10.4 °C 8.7 °C 1015.8 hPa Calm   1.6 km/h 89 % 0.0 mm
22:32 10.6 °C 8.7 °C 1015.8 hPa Calm   3.2 km/h 88 % 0.0 mm
22:37 10.6 °C 8.5 °C 1015.8 hPa Calm   3.2 km/h 87 % 0.0 mm
22:42 10.4 °C 8.5 °C 1015.8 hPa Calm   3.2 km/h 88 % 0.0 mm
22:47 10.4 °C 8.5 °C 1015.8 hPa Calm     88 % 0.0 mm
22:57 10.3 °C 8.6 °C 1015.8 hPa Calm   1.6 km/h 89 % 0.0 mm
23:02 10.3 °C 8.6 °C 1015.8 hPa Calm     89 % 0.0 mm
23:07 10.3 °C 8.6 °C 1015.8 hPa Calm     89 % 0.0 mm
23:12 10.2 °C 8.5 °C 1015.8 hPa Calm     89 % 0.0 mm
23:17 10.2 °C 8.5 °C 1015.8 hPa Calm     89 % 0.0 mm
23:22 10.1 °C 8.4 °C 1015.8 hPa Calm     89 % 0.0 mm
23:32 9.7 °C 8.1 °C 1015.8 hPa Calm     90 % 0.0 mm
23:37 9.7 °C 8.3 °C 1015.8 hPa Calm     91 % 0.0 mm
23:42 9.7 °C 8.3 °C 1015.8 hPa Calm     91 % 0.0 mm
23:47 9.7 °C 8.3 °C 1015.8 hPa Calm   1.6 km/h 91 % 0.0 mm
23:52 9.7 °C 8.3 °C 1016.1 hPa Calm   1.6 km/h 91 % 0.0 mm
23:57 9.6 °C 8.2 °C 1015.8 hPa WNW 1.6 km/h 1.6 km/h 91 % 0.0 mm
Meteo18
Compliments of Weather Underground - 4 mb

Script developed by  Jim McMurry - jmcmurry@mwt.net Adapted for the template by  Wim van der Kuil - Leuven-Template.eu

You find our weather info also at:

European Weather Network

Weather Underground

Equipment we use:

Weather-station
Davis Vue

Weather-program
Meteohub

Weather-server
Raspberry PI 2 B+

Provider
1 and 1

Davis Vue

Meteohub

Raspberry PI 2 B+

1 and 1